createdAt,value
2018-11-14T00:00:21.160Z,7.93
2018-11-14T00:05:13.757Z,7.40
2018-11-14T00:10:07.334Z,7.33
2018-11-14T00:14:59.957Z,7.40
2018-11-14T00:19:52.537Z,7.63
2018-11-14T00:24:45.265Z,8.33
2018-11-14T00:29:37.820Z,8.07
2018-11-14T00:34:30.444Z,7.50
2018-11-14T00:39:23.051Z,8.00
2018-11-14T00:44:15.607Z,7.53
2018-11-14T00:49:08.173Z,8.47
2018-11-14T00:54:00.787Z,9.20
2018-11-14T00:58:53.812Z,8.63
2018-11-14T01:03:46.416Z,8.10
2018-11-14T01:08:39.035Z,8.87
2018-11-14T01:13:31.625Z,8.70
2018-11-14T01:18:24.234Z,8.90
2018-11-14T01:23:16.859Z,8.50
2018-11-14T01:28:09.475Z,8.70
2018-11-14T01:33:02.055Z,9.90
2018-11-14T01:37:55.529Z,9.10
2018-11-14T01:42:49.389Z,9.13
2018-11-14T01:47:42.026Z,9.20
2018-11-14T01:52:34.669Z,9.83
2018-11-14T01:57:27.281Z,9.63
2018-11-14T02:02:20.147Z,9.77
2018-11-14T02:07:12.741Z,9.77
2018-11-14T02:12:05.522Z,10.07
2018-11-14T02:16:58.117Z,10.33
2018-11-14T02:21:50.684Z,10.90
2018-11-14T02:26:43.281Z,11.37
2018-11-14T02:31:35.876Z,10.20
2018-11-14T02:36:28.514Z,10.43
2018-11-14T02:41:21.162Z,9.97
2018-11-14T02:46:13.785Z,11.03
2018-11-14T02:51:19.867Z,12.03
2018-11-14T02:56:12.483Z,10.97
2018-11-14T03:01:05.403Z,11.53
2018-11-14T03:05:57.982Z,10.90
2018-11-14T03:10:50.617Z,10.33
2018-11-14T03:15:43.230Z,11.70
2018-11-14T03:20:35.846Z,10.97
2018-11-14T03:25:28.445Z,11.77
2018-11-14T03:30:21.095Z,11.90
2018-11-14T03:35:14.253Z,12.20
2018-11-14T03:40:09.161Z,12.23
2018-11-14T03:45:01.879Z,12.43
2018-11-14T03:49:54.469Z,13.07
2018-11-14T03:54:47.057Z,12.57
2018-11-14T03:59:39.642Z,13.83
2018-11-14T04:04:32.231Z,13.00
2018-11-14T04:09:24.865Z,12.30
2018-11-14T04:14:17.538Z,12.33
2018-11-14T04:19:10.156Z,13.03
2018-11-14T04:24:02.757Z,12.77
2018-11-14T04:28:55.374Z,13.50
2018-11-14T04:33:48.293Z,13.63
2018-11-14T04:38:40.904Z,13.90
2018-11-14T04:43:33.553Z,13.33
2018-11-14T04:48:26.450Z,14.13
2018-11-14T04:53:19.092Z,14.60
2018-11-14T04:58:11.749Z,13.83
2018-11-14T05:03:05.259Z,13.67
2018-11-14T05:07:57.919Z,15.17
2018-11-14T05:12:51.177Z,16.03
2018-11-14T05:17:44.481Z,14.93
2018-11-14T05:22:37.088Z,16.03
2018-11-14T05:27:29.826Z,15.23
2018-11-14T05:32:22.433Z,16.00
2018-11-14T05:37:15.204Z,15.97
2018-11-14T05:42:07.882Z,15.53
2018-11-14T05:47:00.528Z,14.83
2018-11-14T05:51:53.161Z,15.13
2018-11-14T05:56:45.762Z,14.73
2018-11-14T06:01:38.388Z,15.37
2018-11-14T06:06:31.257Z,15.60
2018-11-14T06:11:24.065Z,14.73
2018-11-14T06:16:16.643Z,16.37
2018-11-14T06:21:09.434Z,16.07
2018-11-14T06:26:02.174Z,16.03
2018-11-14T06:30:54.904Z,17.23
2018-11-14T06:35:47.569Z,16.83
2018-11-14T06:40:40.224Z,17.43
2018-11-14T06:45:33.540Z,16.73
2018-11-14T06:50:26.368Z,17.10
2018-11-14T06:55:19.643Z,16.77
2018-11-14T07:00:34.281Z,16.97
2018-11-14T07:05:26.938Z,17.43
2018-11-14T07:10:20.959Z,16.80
2018-11-14T07:15:15.896Z,17.67
2018-11-14T07:20:16.744Z,17.10
2018-11-14T07:25:09.413Z,17.87
2018-11-14T07:30:02.181Z,17.73
2018-11-14T07:34:54.857Z,16.70
2018-11-14T07:39:47.741Z,15.63
2018-11-14T07:44:40.605Z,17.03
2018-11-14T07:49:33.414Z,14.80
2018-11-14T07:54:26.424Z,15.97
2018-11-14T07:59:19.237Z,15.27
2018-11-14T08:04:12.086Z,15.23
2018-11-14T08:09:06.650Z,14.27
2018-11-14T08:13:59.418Z,15.63
2018-11-14T08:18:52.385Z,15.23
2018-11-14T08:23:45.184Z,15.47
2018-11-14T08:28:37.845Z,15.57
2018-11-14T08:33:30.534Z,14.57
2018-11-14T08:38:23.261Z,16.20
2018-11-14T08:43:15.970Z,14.00
2018-11-14T08:48:08.937Z,13.70
2018-11-14T08:53:01.784Z,13.70
2018-11-14T08:57:54.469Z,13.43
2018-11-14T09:02:47.632Z,13.03
2018-11-14T09:07:40.385Z,14.57
2018-11-14T09:12:33.154Z,14.90
2018-11-14T09:17:25.708Z,14.50
2018-11-14T09:22:18.361Z,14.23
2018-11-14T09:27:11.013Z,15.10
2018-11-14T09:32:03.609Z,14.43
2018-11-14T09:36:56.228Z,14.10
2018-11-14T09:41:48.820Z,14.07
2018-11-14T09:46:41.404Z,13.90
2018-11-14T09:51:34.561Z,13.13
2018-11-14T09:56:27.249Z,13.37
2018-11-14T10:01:19.973Z,12.93
2018-11-14T10:06:12.615Z,13.00
2018-11-14T10:11:05.671Z,12.70
2018-11-14T10:15:58.521Z,12.63
2018-11-14T10:20:51.336Z,12.50
2018-11-14T10:25:44.049Z,12.27
2018-11-14T10:30:36.771Z,11.97
2018-11-14T10:35:29.552Z,12.50
2018-11-14T10:40:25.448Z,12.17
2018-11-14T10:45:19.456Z,12.20
2018-11-14T10:50:14.889Z,11.53
2018-11-14T10:55:08.355Z,12.70
2018-11-14T11:00:01.033Z,12.40
2018-11-14T11:04:59.569Z,12.93
2018-11-14T11:09:58.178Z,14.13
2018-11-14T11:15:27.873Z,13.57
2018-11-14T11:20:20.462Z,14.00
2018-11-14T11:25:13.074Z,13.97
2018-11-14T11:30:08.421Z,15.57
2018-11-14T11:35:01.121Z,15.17
2018-11-14T11:39:53.697Z,13.23
2018-11-14T11:44:46.365Z,13.97
2018-11-14T11:49:39.033Z,13.13
2018-11-14T11:54:31.708Z,14.50
2018-11-14T11:59:24.347Z,13.63
2018-11-14T12:04:16.974Z,14.23
2018-11-14T12:09:10.850Z,14.00
2018-11-14T12:14:04.349Z,13.67
2018-11-14T12:18:57.020Z,13.80
2018-11-14T12:23:49.640Z,14.70
2018-11-14T12:28:42.284Z,15.37
2018-11-14T12:33:34.916Z,14.27
2018-11-14T12:38:27.559Z,14.83
2018-11-14T12:43:20.430Z,15.20
2018-11-14T12:48:13.196Z,13.37
2018-11-14T12:53:05.955Z,14.83
2018-11-14T12:57:58.713Z,14.93
2018-11-14T13:02:51.353Z,15.73
2018-11-14T13:07:44.454Z,14.53
2018-11-14T13:12:37.119Z,16.93
2018-11-14T13:17:30.296Z,15.20
2018-11-14T13:22:22.955Z,15.53
2018-11-14T13:27:15.617Z,16.07
2018-11-14T13:32:08.586Z,13.57
2018-11-14T13:37:01.277Z,14.20
2018-11-14T13:41:53.919Z,15.03
2018-11-14T13:46:46.561Z,15.10
2018-11-14T13:51:39.337Z,15.20
2018-11-14T13:56:32.022Z,14.57
2018-11-14T14:01:24.751Z,15.17
2018-11-14T14:06:17.538Z,14.40
2018-11-14T14:11:10.261Z,14.47
2018-11-14T14:16:02.913Z,13.57
2018-11-14T14:20:55.562Z,14.00
2018-11-14T14:25:48.217Z,15.30
2018-11-14T14:30:40.894Z,15.97
2018-11-14T14:35:33.444Z,15.23
2018-11-14T14:40:26.013Z,15.70
2018-11-14T14:45:22.086Z,16.03
2018-11-14T14:50:15.978Z,16.37
2018-11-14T14:55:12.958Z,16.73
2018-11-14T15:00:11.258Z,16.33
2018-11-14T15:05:04.737Z,17.03
2018-11-14T15:09:57.365Z,16.93
2018-11-14T15:14:50.098Z,18.40
2018-11-14T15:19:42.801Z,16.90
2018-11-14T15:24:35.498Z,17.70
2018-11-14T15:29:28.072Z,15.90
2018-11-14T15:34:20.704Z,16.50
2018-11-14T15:39:13.277Z,17.43
2018-11-14T15:44:05.990Z,17.60
2018-11-14T15:48:58.874Z,17.17
2018-11-14T15:53:51.610Z,17.77
2018-11-14T15:58:44.388Z,18.73
2018-11-14T16:03:37.140Z,19.20
2018-11-14T16:08:29.732Z,20.30
2018-11-14T16:13:22.476Z,18.70
2018-11-14T16:18:15.755Z,19.20
2018-11-14T16:23:08.445Z,20.60
2018-11-14T16:28:01.854Z,17.57
2018-11-14T16:32:55.795Z,20.00
2018-11-14T16:37:48.554Z,18.60
2018-11-14T16:42:41.241Z,20.30
2018-11-14T16:47:34.012Z,20.83
2018-11-14T16:52:26.762Z,21.07
2018-11-14T16:57:19.566Z,19.60
2018-11-14T17:02:12.313Z,20.40
2018-11-14T17:07:05.132Z,20.60
2018-11-14T17:11:57.876Z,20.20
2018-11-14T17:16:50.562Z,21.53
2018-11-14T17:21:43.181Z,21.10
2018-11-14T17:26:35.862Z,21.67
2018-11-14T17:31:28.488Z,21.60
2018-11-14T17:36:21.110Z,23.70
2018-11-14T17:41:13.960Z,25.10
2018-11-14T17:46:06.908Z,24.93
2018-11-14T17:50:59.945Z,25.90
2018-11-14T17:55:52.659Z,23.93
2018-11-14T18:00:45.208Z,25.83
2018-11-14T18:05:37.917Z,25.20
2018-11-14T18:10:31.245Z,25.97
2018-11-14T18:15:23.884Z,25.60
2018-11-14T18:20:18.704Z,25.37
2018-11-14T18:25:12.261Z,25.20
2018-11-14T18:30:09.569Z,25.67
2018-11-14T18:35:02.559Z,24.77
2018-11-14T18:39:55.209Z,24.47
2018-11-14T18:44:48.018Z,24.00
2018-11-14T18:49:47.229Z,23.57
2018-11-14T18:54:50.076Z,25.47
2018-11-14T18:59:47.933Z,25.43
2018-11-14T19:04:40.870Z,25.00
2018-11-14T19:09:33.546Z,27.20
2018-11-14T19:14:26.462Z,27.17
2018-11-14T19:19:19.090Z,26.80
2018-11-14T19:24:11.607Z,27.17
2018-11-14T19:29:04.536Z,27.17
2018-11-14T19:33:57.103Z,26.17
2018-11-14T19:38:49.816Z,26.70
2018-11-14T19:43:42.536Z,25.97
2018-11-14T19:48:35.234Z,27.60
2018-11-14T19:53:27.869Z,25.63
2018-11-14T19:58:20.543Z,28.63
2018-11-14T20:03:13.198Z,28.47
2018-11-14T20:08:05.964Z,27.43
2018-11-14T20:12:58.590Z,26.30
2018-11-14T20:17:51.537Z,27.20
2018-11-14T20:22:44.701Z,26.63
2018-11-14T20:27:37.861Z,27.67
2018-11-14T20:32:30.513Z,25.57
2018-11-14T20:37:23.281Z,26.30
2018-11-14T20:42:15.949Z,26.20
2018-11-14T20:47:08.630Z,27.00
2018-11-14T20:52:01.309Z,26.20
2018-11-14T20:56:53.964Z,25.67
2018-11-14T21:01:46.541Z,26.70
2018-11-14T21:06:39.311Z,25.23
2018-11-14T21:11:32.146Z,24.50
2018-11-14T21:16:24.962Z,24.43
2018-11-14T21:21:17.560Z,24.30
2018-11-14T21:26:10.220Z,25.17
2018-11-14T21:31:04.013Z,24.17
2018-11-14T21:35:56.965Z,24.97
2018-11-14T21:40:49.629Z,24.67
2018-11-14T21:45:42.275Z,26.10
2018-11-14T21:50:35.076Z,25.17
2018-11-14T21:55:27.745Z,24.37
2018-11-14T22:00:21.799Z,24.73
2018-11-14T22:05:14.505Z,25.60
2018-11-14T22:10:10.349Z,23.77
2018-11-14T22:15:02.953Z,25.40
2018-11-14T22:19:55.601Z,24.27
2018-11-14T22:24:48.364Z,25.20
2018-11-14T22:29:41.042Z,24.70
2018-11-14T22:34:34.130Z,24.73
2018-11-14T22:39:26.794Z,24.80
2018-11-14T22:44:19.518Z,26.13
2018-11-14T22:49:12.206Z,25.13
2018-11-14T22:54:04.929Z,23.47
2018-11-14T22:58:57.641Z,24.43
2018-11-14T23:03:50.431Z,23.47
2018-11-14T23:08:51.623Z,23.13
2018-11-14T23:18:53.658Z,23.27
2018-11-14T23:23:56.087Z,22.43
2018-11-14T23:28:49.813Z,22.33
2018-11-14T23:33:42.496Z,22.57
2018-11-14T23:38:37.871Z,21.13
2018-11-14T23:43:35.652Z,21.93
2018-11-14T23:48:32.775Z,22.37
2018-11-14T23:53:42.142Z,22.73
2018-11-14T23:58:37.042Z,22.67
